Time;durP1;ratioP1;P1;durP2;ratioP2;P2;SDS_P1;SDS_P2;PMS_P1;PMS_P2;Temp;Humidity;BMP_temperature;BMP_pressure;BME280_temperature;BME280_humidity;BME280_pressure;Samples;Min_cycle;Max_cycle;Signal;HPM_P1;HPM_P2
2023/07/05 00:00:28;;;;;;;19.55;13.88;;;;;;;;;;5091582;28;20080;-85
2023/07/05 00:02:56;;;;;;;23.30;14.13;;;;;;;;;;5091223;28;20044;-85
2023/07/05 00:05:23;;;;;;;19.60;13.77;;;;;;;;;;5091675;28;20152;-84
2023/07/05 00:07:50;;;;;;;18.45;13.45;;;;;;;;;;5092577;28;20066;-85
2023/07/05 00:10:18;;;;;;;18.83;13.55;;;;;;;;;;5091368;28;20048;-84
2023/07/05 00:12:45;;;;;;;19.92;13.48;;;;;;;;;;5092428;28;20044;-84
2023/07/05 00:15:12;;;;;;;17.63;13.18;;;;;;;;;;5092408;28;20508;-84
2023/07/05 00:17:40;;;;;;;20.65;14.05;;;;;;;;;;5091475;28;20048;-85
2023/07/05 00:20:09;;;;;;;18.73;13.35;;;;;;;;;;5091314;28;20082;-85
2023/07/05 00:22:36;;;;;;;17.73;12.88;;;;;;;;;;5091466;28;20081;-84
2023/07/05 00:25:03;;;;;;;17.85;13.02;;;;;;;;;;5092782;28;20051;-85
2023/07/05 00:27:31;;;;;;;19.27;14.30;;;;;;;;;;5096327;28;20047;-84
2023/07/05 00:29:58;;;;;;;22.05;14.27;;;;;;;;;;5094859;28;20071;-84
2023/07/05 00:32:25;;;;;;;18.15;12.88;;;;;;;;;;5095160;28;20074;-84
2023/07/05 00:34:53;;;;;;;18.60;14.10;;;;;;;;;;5096308;28;20044;-85
2023/07/05 00:37:20;;;;;;;16.35;12.48;;;;;;;;;;5096541;28;20384;-85
2023/07/05 00:39:47;;;;;;;20.13;13.10;;;;;;;;;;5096122;28;20051;-84
2023/07/05 00:42:15;;;;;;;17.85;13.75;;;;;;;;;;5095747;28;20060;-85
2023/07/05 00:44:42;;;;;;;19.65;14.25;;;;;;;;;;5094979;28;20388;-84
2023/07/05 00:47:20;;;;;;;19.95;13.77;;;;;;;;;;5094833;28;20519;-84
2023/07/05 00:49:48;;;;;;;18.83;14.10;;;;;;;;;;5094996;28;20051;-84
2023/07/05 00:52:16;;;;;;;20.25;14.38;;;;;;;;;;5094672;28;20127;-84
2023/07/05 00:54:47;;;;;;;19.15;13.98;;;;;;;;;;5094529;28;20070;-84
2023/07/05 00:57:20;;;;;;;19.92;14.57;;;;;;;;;;5094506;28;20051;-84
2023/07/05 00:59:51;;;;;;;17.95;13.23;;;;;;;;;;5094690;28;20532;-84
2023/07/05 01:02:18;;;;;;;25.38;14.68;;;;;;;;;;5094594;28;20056;-84
2023/07/05 01:04:45;;;;;;;19.35;14.25;;;;;;;;;;5094326;28;20048;-84
2023/07/05 01:07:13;;;;;;;20.10;13.80;;;;;;;;;;5094183;28;20055;-85
2023/07/05 01:09:40;;;;;;;17.85;13.65;;;;;;;;;;5095592;28;20056;-84
2023/07/05 01:12:10;;;;;;;18.38;13.48;;;;;;;;;;5094386;28;20055;-84
2023/07/05 01:14:43;;;;;;;17.85;13.65;;;;;;;;;;5095076;28;20071;-84
2023/07/05 01:17:19;;;;;;;24.27;14.25;;;;;;;;;;5095787;28;20048;-84
2023/07/05 01:20:04;;;;;;;19.00;13.68;;;;;;;;;;5095490;28;20040;-84
2023/07/05 01:22:38;;;;;;;16.00;12.77;;;;;;;;;;5095417;28;20048;-85
2023/07/05 01:25:18;;;;;;;18.23;13.15;;;;;;;;;;5094689;28;20075;-84
2023/07/05 01:28:07;;;;;;;18.48;13.45;;;;;;;;;;5095332;28;20052;-84
2023/07/05 01:30:43;;;;;;;19.27;14.10;;;;;;;;;;5095390;28;20048;-85
2023/07/05 01:33:15;;;;;;;19.20;14.13;;;;;;;;;;5094354;28;20093;-85
2023/07/05 01:35:45;;;;;;;20.15;13.80;;;;;;;;;;5094097;28;20048;-84
2023/07/05 01:38:13;;;;;;;18.92;14.10;;;;;;;;;;5094316;28;20629;-84
2023/07/05 01:40:40;;;;;;;20.25;14.20;;;;;;;;;;5093924;28;20048;-85
2023/07/05 01:43:11;;;;;;;21.35;13.75;;;;;;;;;;5093864;28;20059;-85
2023/07/05 01:45:42;;;;;;;19.90;13.98;;;;;;;;;;5094086;28;20553;-85
2023/07/05 01:48:29;;;;;;;23.23;14.07;;;;;;;;;;5095202;28;20437;-85
2023/07/05 01:51:09;;;;;;;19.13;13.70;;;;;;;;;;5090688;28;20568;-85
2023/07/05 01:53:51;;;;;;;18.45;13.32;;;;;;;;;;5095099;28;20044;-85
2023/07/05 01:56:21;;;;;;;17.50;13.82;;;;;;;;;;5095328;28;20040;-85
2023/07/05 01:58:51;;;;;;;20.00;14.88;;;;;;;;;;5095054;28;20106;-84
2023/07/05 02:01:18;;;;;;;24.35;14.98;;;;;;;;;;5093465;28;20565;-84
2023/07/05 02:03:49;;;;;;;23.27;14.85;;;;;;;;;;5093363;28;20044;-85
2023/07/05 02:06:20;;;;;;;22.08;14.88;;;;;;;;;;5093858;28;20109;-85
2023/07/05 02:08:49;;;;;;;22.60;15.68;;;;;;;;;;5094432;28;20048;-86
2023/07/05 02:11:17;;;;;;;23.88;14.70;;;;;;;;;;5094515;28;20515;-85
2023/07/05 02:13:44;;;;;;;18.75;13.82;;;;;;;;;;5093593;28;20051;-86
2023/07/05 02:16:11;;;;;;;18.35;14.27;;;;;;;;;;5093382;28;20054;-86
2023/07/05 02:18:39;;;;;;;20.27;14.13;;;;;;;;;;5093364;28;20078;-86
2023/07/05 02:21:10;;;;;;;19.00;13.52;;;;;;;;;;5093433;28;20079;-85
2023/07/05 02:23:37;;;;;;;23.05;14.57;;;;;;;;;;5093419;28;20491;-85
2023/07/05 02:26:05;;;;;;;17.75;13.40;;;;;;;;;;5093498;28;20056;-86
2023/07/05 02:28:33;;;;;;;20.63;14.52;;;;;;;;;;5093136;28;20093;-85
2023/07/05 02:31:06;;;;;;;19.58;13.98;;;;;;;;;;5092802;28;20052;-85
2023/07/05 02:33:34;;;;;;;23.10;14.63;;;;;;;;;;5093126;28;20082;-85
2023/07/05 02:36:09;;;;;;;22.42;14.70;;;;;;;;;;5094336;28;20101;-85
2023/07/05 02:38:36;;;;;;;21.75;14.85;;;;;;;;;;5092698;28;20045;-85
2023/07/05 02:41:04;;;;;;;20.50;14.82;;;;;;;;;;5092351;28;20082;-85
2023/07/05 02:43:31;;;;;;;20.88;14.25;;;;;;;;;;5092359;28;20150;-85
2023/07/05 02:45:58;;;;;;;19.73;14.60;;;;;;;;;;5092888;28;20052;-85
2023/07/05 02:48:25;;;;;;;19.27;13.95;;;;;;;;;;5093183;28;20101;-85
2023/07/05 02:50:53;;;;;;;21.23;14.48;;;;;;;;;;5093697;28;20078;-85
2023/07/05 02:53:20;;;;;;;22.17;15.20;;;;;;;;;;5092486;28;20101;-85
2023/07/05 02:55:47;;;;;;;20.50;13.95;;;;;;;;;;5092278;28;20430;-85
2023/07/05 02:58:14;;;;;;;21.63;14.68;;;;;;;;;;5092754;28;20044;-85
2023/07/05 03:00:43;;;;;;;19.40;14.85;;;;;;;;;;5092280;28;20048;-84
2023/07/05 03:03:10;;;;;;;22.17;14.93;;;;;;;;;;5093378;28;20083;-85
2023/07/05 03:05:37;;;;;;;21.52;13.73;;;;;;;;;;5092098;28;20103;-85
2023/07/05 03:08:05;;;;;;;24.10;16.08;;;;;;;;;;5091987;28;20048;-85
2023/07/05 03:10:32;;;;;;;22.75;15.65;;;;;;;;;;5092185;28;20454;-85
2023/07/05 03:12:59;;;;;;;20.48;15.30;;;;;;;;;;5092512;28;20062;-85
2023/07/05 03:15:27;;;;;;;18.73;14.32;;;;;;;;;;5092426;28;20074;-86
2023/07/05 03:17:54;;;;;;;21.38;14.40;;;;;;;;;;5092458;28;20067;-85
2023/07/05 03:20:21;;;;;;;22.98;15.05;;;;;;;;;;5092290;28;20044;-85
2023/07/05 03:22:50;;;;;;;19.98;14.57;;;;;;;;;;5091860;28;20488;-85
2023/07/05 03:25:17;;;;;;;20.08;14.63;;;;;;;;;;5092022;28;20048;-85
2023/07/05 03:27:44;;;;;;;19.85;14.40;;;;;;;;;;5091923;28;20044;-85
2023/07/05 03:30:11;;;;;;;19.63;14.80;;;;;;;;;;5093307;28;20040;-85
2023/07/05 03:32:43;;;;;;;17.00;13.52;;;;;;;;;;5092033;28;20048;-85
2023/07/05 03:35:11;;;;;;;20.40;14.25;;;;;;;;;;5091984;28;20056;-85
2023/07/05 03:37:38;;;;;;;21.10;14.25;;;;;;;;;;5092910;28;20508;-85
2023/07/05 03:40:06;;;;;;;19.88;14.23;;;;;;;;;;5091912;28;20044;-85
2023/07/05 03:42:33;;;;;;;20.75;15.15;;;;;;;;;;5092895;28;20508;-84
2023/07/05 03:45:00;;;;;;;17.17;13.73;;;;;;;;;;5092045;28;20141;-85
2023/07/05 03:47:28;;;;;;;20.27;14.20;;;;;;;;;;5093067;28;20101;-85
2023/07/05 03:49:55;;;;;;;21.20;14.43;;;;;;;;;;5091594;28;20504;-85
2023/07/05 03:52:23;;;;;;;21.42;14.43;;;;;;;;;;5091466;28;20040;-85
2023/07/05 03:54:51;;;;;;;22.30;14.82;;;;;;;;;;5092887;28;20117;-86
2023/07/05 03:57:18;;;;;;;19.10;14.32;;;;;;;;;;5092153;28;20471;-85
2023/07/05 03:59:47;;;;;;;28.42;16.88;;;;;;;;;;5094375;28;20072;-86
2023/07/05 04:02:14;;;;;;;20.92;16.15;;;;;;;;;;5095855;28;20403;-86
2023/07/05 04:04:44;;;;;;;25.15;14.90;;;;;;;;;;5097024;28;20471;-86
2023/07/05 04:07:11;;;;;;;18.65;13.98;;;;;;;;;;5096219;28;20097;-85
2023/07/05 04:09:38;;;;;;;17.88;13.85;;;;;;;;;;5096115;28;20055;-85
2023/07/05 04:12:06;;;;;;;20.60;14.32;;;;;;;;;;5096902;28;20384;-85
2023/07/05 04:14:33;;;;;;;22.73;15.90;;;;;;;;;;5096027;28;20124;-86
2023/07/05 04:17:00;;;;;;;25.88;15.05;;;;;;;;;;5096877;28;20089;-85
2023/07/05 04:19:28;;;;;;;20.80;14.13;;;;;;;;;;5095957;28;20078;-86
2023/07/05 04:21:55;;;;;;;21.70;13.93;;;;;;;;;;5095843;28;20454;-85
2023/07/05 04:24:23;;;;;;;26.80;14.07;;;;;;;;;;5096197;28;20048;-85
2023/07/05 04:26:50;;;;;;;20.58;13.05;;;;;;;;;;5096682;28;20082;-86
2023/07/05 04:29:17;;;;;;;31.17;14.25;;;;;;;;;;5095999;28;20051;-85
2023/07/05 04:31:44;;;;;;;25.85;13.55;;;;;;;;;;5095630;28;20052;-86
2023/07/05 04:34:12;;;;;;;19.50;8.82;;;;;;;;;;5096870;28;20048;-85
2023/07/05 04:36:39;;;;;;;13.88;8.98;;;;;;;;;;5096944;28;20051;-87
2023/07/05 04:39:06;;;;;;;16.40;9.70;;;;;;;;;;5096621;28;20121;-87
2023/07/05 04:41:34;;;;;;;13.45;7.78;;;;;;;;;;5095449;28;20048;-86
2023/07/05 04:44:03;;;;;;;9.75;4.90;;;;;;;;;;5095858;28;20052;-86
2023/07/05 04:46:31;;;;;;;5.45;4.43;;;;;;;;;;5096304;28;20040;-93
2023/07/05 04:48:58;;;;;;;8.93;5.45;;;;;;;;;;5096019;28;20089;-88
2023/07/05 04:51:25;;;;;;;5.20;3.70;;;;;;;;;;5097003;28;20048;-87
2023/07/05 04:53:53;;;;;;;7.05;4.88;;;;;;;;;;5097344;28;20052;-92
2023/07/05 04:56:20;;;;;;;8.00;5.63;;;;;;;;;;5096729;28;20040;-88
2023/07/05 04:58:48;;;;;;;8.98;5.50;;;;;;;;;;5095471;28;20047;-86
2023/07/05 05:01:16;;;;;;;5.82;5.10;;;;;;;;;;5096070;28;20093;-84
2023/07/05 05:03:44;;;;;;;6.20;4.88;;;;;;;;;;5095898;28;20135;-88
2023/07/05 05:06:11;;;;;;;5.40;3.95;;;;;;;;;;5099785;28;20109;-87
2023/07/05 05:08:38;;;;;;;7.97;4.03;;;;;;;;;;5098404;28;20052;-88
2023/07/05 05:11:06;;;;;;;5.35;4.03;;;;;;;;;;5097653;28;20044;-88
2023/07/05 05:13:34;;;;;;;6.53;4.07;;;;;;;;;;5094039;28;20077;-87
2023/07/05 05:16:02;;;;;;;4.32;3.90;;;;;;;;;;5094450;28;20696;-88
2023/07/05 05:18:31;;;;;;;6.93;4.03;;;;;;;;;;5096228;28;20142;-87
2023/07/05 05:20:59;;;;;;;3.70;3.40;;;;;;;;;;5095726;28;20044;-88
2023/07/05 05:23:26;;;;;;;3.97;3.47;;;;;;;;;;5095241;28;20052;-88
2023/07/05 05:25:54;;;;;;;21.10;4.88;;;;;;;;;;5094741;28;20052;-87
2023/07/05 05:28:21;;;;;;;7.05;3.47;;;;;;;;;;5094421;28;20070;-87
2023/07/05 05:30:49;;;;;;;4.18;3.78;;;;;;;;;;5094949;28;20109;-86
2023/07/05 05:33:17;;;;;;;3.08;2.80;;;;;;;;;;5096595;28;20101;-89
2023/07/05 05:35:48;;;;;;;5.43;3.03;;;;;;;;;;5096811;28;20059;-88
2023/07/05 05:38:17;;;;;;;2.13;1.95;;;;;;;;;;5094441;28;20055;-87
2023/07/05 05:40:44;;;;;;;2.45;2.25;;;;;;;;;;5093967;28;20074;-85
2023/07/05 05:43:12;;;;;;;2.50;2.30;;;;;;;;;;5095387;28;20412;-86
2023/07/05 05:45:39;;;;;;;4.85;2.40;;;;;;;;;;5094288;28;20044;-87
2023/07/05 05:48:06;;;;;;;2.58;2.33;;;;;;;;;;5094963;28;20093;-87
2023/07/05 05:50:35;;;;;;;2.58;2.33;;;;;;;;;;5095261;28;20523;-86
2023/07/05 05:53:02;;;;;;;2.60;2.40;;;;;;;;;;5093858;28;20484;-89
2023/07/05 05:55:29;;;;;;;3.58;2.38;;;;;;;;;;5094502;28;20093;-85
2023/07/05 05:57:57;;;;;;;2.50;2.30;;;;;;;;;;5094469;28;20052;-87
2023/07/05 06:00:24;;;;;;;3.20;2.30;;;;;;;;;;5095234;28;20071;-86
2023/07/05 06:02:52;;;;;;;5.03;2.50;;;;;;;;;;5094667;28;20052;-86
2023/07/05 06:05:19;;;;;;;4.28;2.40;;;;;;;;;;5094904;28;20045;-86
2023/07/05 06:07:46;;;;;;;10.00;2.55;;;;;;;;;;5094371;28;20047;-85
2023/07/05 06:10:14;;;;;;;4.80;2.95;;;;;;;;;;5094265;28;20044;-85
2023/07/05 06:12:41;;;;;;;2.65;2.20;;;;;;;;;;5094522;28;20044;-86
2023/07/05 06:15:10;;;;;;;3.03;2.63;;;;;;;;;;5094833;28;20044;-85
2023/07/05 06:17:38;;;;;;;2.50;2.00;;;;;;;;;;5093666;28;20048;-85
2023/07/05 06:20:06;;;;;;;1.95;1.85;;;;;;;;;;5093277;28;20050;-86
2023/07/05 06:22:38;;;;;;;4.18;2.15;;;;;;;;;;5092590;28;20087;-85
2023/07/05 06:25:05;;;;;;;1.80;1.70;;;;;;;;;;5093435;28;20051;-85
2023/07/05 06:27:34;;;;;;;2.35;1.95;;;;;;;;;;5093405;28;20048;-91
2023/07/05 06:30:02;;;;;;;2.42;1.58;;;;;;;;;;5093405;28;20101;-84
2023/07/05 06:32:29;;;;;;;1.65;1.50;;;;;;;;;;5093246;28;20076;-86
2023/07/05 06:34:57;;;;;;;2.47;1.77;;;;;;;;;;5092969;28;20048;-87
2023/07/05 06:37:24;;;;;;;2.92;1.70;;;;;;;;;;5093475;28;20503;-85
2023/07/05 06:39:51;;;;;;;1.70;1.60;;;;;;;;;;5094785;28;20055;-86
2023/07/05 06:42:18;;;;;;;2.75;1.58;;;;;;;;;;5093251;28;20106;-86
2023/07/05 06:44:46;;;;;;;1.83;1.67;;;;;;;;;;5094169;28;20090;-86
2023/07/05 06:47:13;;;;;;;2.78;1.83;;;;;;;;;;5093234;28;20055;-87
2023/07/05 06:49:40;;;;;;;2.40;1.75;;;;;;;;;;5094185;28;20101;-87
2023/07/05 06:52:10;;;;;;;2.25;2.05;;;;;;;;;;5094397;28;20044;-86
2023/07/05 06:54:37;;;;;;;5.28;2.45;;;;;;;;;;5093341;28;20048;-88
2023/07/05 06:57:05;;;;;;;7.63;3.05;;;;;;;;;;5094412;28;20105;-87
2023/07/05 06:59:32;;;;;;;9.20;2.63;;;;;;;;;;5092983;28;20048;-87
2023/07/05 07:02:00;;;;;;;3.05;2.58;;;;;;;;;;5092730;28;20503;-84
2023/07/05 07:04:29;;;;;;;2.55;1.95;;;;;;;;;;5092717;28;20075;-85
2023/07/05 07:06:56;;;;;;;2.05;1.90;;;;;;;;;;5093654;28;20040;-85
2023/07/05 07:09:24;;;;;;;2.08;1.98;;;;;;;;;;5092359;28;20043;-86
2023/07/05 07:11:51;;;;;;;1.65;1.55;;;;;;;;;;5093223;28;20168;-85
2023/07/05 07:14:19;;;;;;;2.35;2.00;;;;;;;;;;5092262;28;20121;-83
2023/07/05 07:16:46;;;;;;;2.80;2.10;;;;;;;;;;5092339;28;20048;-85
2023/07/05 07:19:13;;;;;;;3.17;1.80;;;;;;;;;;5092287;28;20488;-85
2023/07/05 07:21:41;;;;;;;3.15;1.98;;;;;;;;;;5092105;28;20043;-85
2023/07/05 07:24:08;;;;;;;2.25;2.05;;;;;;;;;;5091677;28;20313;-89
2023/07/05 07:26:37;;;;;;;2.80;1.90;;;;;;;;;;5091519;28;20052;-84
2023/07/05 07:29:04;;;;;;;3.90;2.17;;;;;;;;;;5092013;28;20511;-92
2023/07/05 07:31:33;;;;;;;2.35;1.88;;;;;;;;;;5092468;28;20494;-87
2023/07/05 07:34:02;;;;;;;2.75;1.80;;;;;;;;;;5091994;28;20415;-84
2023/07/05 07:36:30;;;;;;;2.38;2.00;;;;;;;;;;5092045;28;20044;-86
2023/07/05 07:38:58;;;;;;;2.97;1.80;;;;;;;;;;5092992;28;20056;-84
2023/07/05 07:41:28;;;;;;;7.50;2.00;;;;;;;;;;5092446;28;20058;-85
2023/07/05 07:44:00;;;;;;;1.65;1.55;;;;;;;;;;5092848;28;20109;-83
2023/07/05 07:46:28;;;;;;;1.50;1.40;;;;;;;;;;5091753;28;20048;-88
2023/07/05 07:48:57;;;;;;;9.57;1.67;;;;;;;;;;5091899;28;20048;-86
2023/07/05 07:51:26;;;;;;;4.45;1.73;;;;;;;;;;5092234;28;20103;-85
2023/07/05 07:54:05;;;;;;;3.03;1.25;;;;;;;;;;5092209;28;20385;-86
2023/07/05 07:56:32;;;;;;;2.45;1.33;;;;;;;;;;5093554;28;20537;-87
2023/07/05 07:59:00;;;;;;;1.42;1.38;;;;;;;;;;5092151;28;20055;-87
2023/07/05 08:01:29;;;;;;;1.27;1.17;;;;;;;;;;5093301;28;20438;-87
2023/07/05 08:03:57;;;;;;;1.60;1.50;;;;;;;;;;5092491;28;20044;-88
2023/07/05 08:06:30;;;;;;;2.20;1.60;;;;;;;;;;5092254;28;20135;-84
2023/07/05 08:08:57;;;;;;;2.90;1.58;;;;;;;;;;5092222;28;20059;-87
2023/07/05 08:11:25;;;;;;;1.55;1.45;;;;;;;;;;5092356;28;20130;-86
2023/07/05 08:13:52;;;;;;;3.03;1.45;;;;;;;;;;5092150;28;20051;-86
2023/07/05 08:16:20;;;;;;;2.10;1.27;;;;;;;;;;5092186;28;20547;-85
2023/07/05 08:18:47;;;;;;;2.65;1.77;;;;;;;;;;5091729;28;20079;-85
2023/07/05 08:21:15;;;;;;;2.17;1.70;;;;;;;;;;5091785;28;20078;-83
2023/07/05 08:23:43;;;;;;;4.38;1.65;;;;;;;;;;5093385;28;20114;-86
2023/07/05 08:26:13;;;;;;;2.42;1.52;;;;;;;;;;5092470;28;20048;-88
2023/07/05 08:28:40;;;;;;;7.22;1.50;;;;;;;;;;5092726;28;20084;-88
2023/07/05 08:31:08;;;;;;;5.95;1.55;;;;;;;;;;5092902;28;20056;-87
2023/07/05 08:33:37;;;;;;;2.00;1.38;;;;;;;;;;5092948;28;20131;-85
2023/07/05 08:36:07;;;;;;;1.52;1.42;;;;;;;;;;5093272;28;20059;-86
2023/07/05 08:38:38;;;;;;;1.90;1.65;;;;;;;;;;5092181;28;20055;-85
2023/07/05 08:41:11;;;;;;;1.63;1.52;;;;;;;;;;5091728;28;20044;-86
2023/07/05 08:43:41;;;;;;;11.90;2.15;;;;;;;;;;5092205;28;20135;-86
2023/07/05 08:46:12;;;;;;;4.35;1.65;;;;;;;;;;5094605;28;20381;-87
2023/07/05 08:48:40;;;;;;;5.60;2.00;;;;;;;;;;5095597;28;20051;-85
2023/07/05 08:51:09;;;;;;;1.70;1.60;;;;;;;;;;5095555;28;20051;-86
2023/07/05 08:53:47;;;;;;;2.33;1.65;;;;;;;;;;5095841;28;20055;-88
2023/07/05 08:56:20;;;;;;;1.42;1.33;;;;;;;;;;5095642;28;20518;-87
2023/07/05 08:58:51;;;;;;;1.90;1.40;;;;;;;;;;5095507;28;20076;-87
2023/07/05 09:01:26;;;;;;;1.50;1.40;;;;;;;;;;5095575;28;20083;-87
2023/07/05 09:03:53;;;;;;;1.45;1.35;;;;;;;;;;5095149;28;20385;-88
2023/07/05 09:06:23;;;;;;;1.42;1.30;;;;;;;;;;5095276;28;20045;-86
2023/07/05 09:09:05;;;;;;;3.35;1.50;;;;;;;;;;5095972;28;20048;-86
2023/07/05 09:11:39;;;;;;;3.03;1.60;;;;;;;;;;5095046;28;20488;-86
2023/07/05 09:14:12;;;;;;;1.67;1.20;;;;;;;;;;5095088;28;20048;-85
2023/07/05 09:16:47;;;;;;;1.50;1.40;;;;;;;;;;5095322;28;20105;-86
2023/07/05 09:19:35;;;;;;;1.63;1.45;;;;;;;;;;5094517;28;20572;-82
2023/07/05 09:22:05;;;;;;;1.90;1.58;;;;;;;;;;5096184;28;20456;-85
2023/07/05 09:24:39;;;;;;;1.58;1.48;;;;;;;;;;5095765;28;20058;-84
2023/07/05 09:27:13;;;;;;;1.35;1.20;;;;;;;;;;5094418;28;20484;-86
2023/07/05 09:29:46;;;;;;;1.35;1.25;;;;;;;;;;5094126;28;20048;-86
2023/07/05 09:32:18;;;;;;;1.40;1.30;;;;;;;;;;5094846;28;20139;-91
2023/07/05 09:34:48;;;;;;;2.38;1.58;;;;;;;;;;5095835;28;20052;-86
2023/07/05 09:37:16;;;;;;;4.07;1.85;;;;;;;;;;5094608;28;20044;-87
2023/07/05 09:40:09;;;;;;;1.80;1.67;;;;;;;;;;5094522;28;20055;-86
2023/07/05 09:42:41;;;;;;;1.88;1.58;;;;;;;;;;5094206;28;20124;-85
2023/07/05 09:45:11;;;;;;;1.90;1.80;;;;;;;;;;5094271;28;20393;-86
2023/07/05 09:47:39;;;;;;;3.10;1.52;;;;;;;;;;5094524;28;20048;-85
2023/07/05 09:50:17;;;;;;;2.65;1.52;;;;;;;;;;5094935;28;20132;-88
2023/07/05 09:52:51;;;;;;;1.63;1.52;;;;;;;;;;5094319;28;20094;-85
2023/07/05 09:55:20;;;;;;;1.70;1.60;;;;;;;;;;5095685;28;20048;-84
2023/07/05 09:57:48;;;;;;;2.00;1.77;;;;;;;;;;5093724;28;20052;-85
2023/07/05 10:00:33;;;;;;;1.65;1.48;;;;;;;;;;5093660;28;20048;-84
2023/07/05 10:03:11;;;;;;;1.92;1.83;;;;;;;;;;5094690;28;20044;-90
2023/07/05 10:05:39;;;;;;;1.98;1.75;;;;;;;;;;5094951;28;20135;-86
2023/07/05 10:08:14;;;;;;;3.83;1.50;;;;;;;;;;5093870;28;20090;-85
2023/07/05 10:10:42;;;;;;;1.67;1.58;;;;;;;;;;5093590;28;20060;-86
2023/07/05 10:13:14;;;;;;;3.00;1.80;;;;;;;;;;5094560;28;20048;-86
2023/07/05 10:15:43;;;;;;;2.13;1.80;;;;;;;;;;5093386;28;20080;-86
2023/07/05 10:18:31;;;;;;;3.13;1.88;;;;;;;;;;5093761;28;20052;-84
2023/07/05 10:21:01;;;;;;;1.90;1.80;;;;;;;;;;5093450;28;20560;-84
2023/07/05 10:23:30;;;;;;;2.00;1.80;;;;;;;;;;5093413;28;20040;-85
2023/07/05 10:26:01;;;;;;;4.07;2.05;;;;;;;;;;5094430;28;20525;-88
2023/07/05 10:28:29;;;;;;;2.45;2.05;;;;;;;;;;5093914;28;20078;-87
2023/07/05 10:30:59;;;;;;;2.60;2.10;;;;;;;;;;5093594;28;20055;-84
2023/07/05 10:33:28;;;;;;;2.20;2.00;;;;;;;;;;5094157;28;20108;-85
2023/07/05 10:36:04;;;;;;;2.83;2.60;;;;;;;;;;5093519;28;20048;-86
2023/07/05 10:38:44;;;;;;;2.75;1.90;;;;;;;;;;5094398;28;20055;-85
2023/07/05 10:41:17;;;;;;;2.50;1.70;;;;;;;;;;5093131;28;20070;-88
2023/07/05 10:43:53;;;;;;;1.98;1.88;;;;;;;;;;5093484;28;20059;-86
2023/07/05 10:46:22;;;;;;;1.60;1.50;;;;;;;;;;5094235;28;20097;-87
2023/07/05 10:48:51;;;;;;;2.20;1.92;;;;;;;;;;5092181;28;20059;-83
2023/07/05 10:51:20;;;;;;;4.10;1.80;;;;;;;;;;5093886;28;20079;-85
2023/07/05 10:53:49;;;;;;;3.40;2.00;;;;;;;;;;5092501;28;20179;-84
2023/07/05 10:56:20;;;;;;;1.80;1.70;;;;;;;;;;5094002;28;20052;-87
2023/07/05 10:58:52;;;;;;;4.93;2.20;;;;;;;;;;5092858;28;20056;-85
2023/07/05 11:01:26;;;;;;;2.42;2.33;;;;;;;;;;5093239;28;20048;-86
2023/07/05 11:03:59;;;;;;;2.38;2.17;;;;;;;;;;5092874;28;20605;-84
2023/07/05 11:06:27;;;;;;;9.02;2.30;;;;;;;;;;5092501;28;20044;-83
2023/07/05 11:08:54;;;;;;;5.28;2.00;;;;;;;;;;5091609;28;20047;-90
2023/07/05 11:11:24;;;;;;;5.13;2.25;;;;;;;;;;5093571;28;20503;-88
2023/07/05 11:13:52;;;;;;;4.65;2.40;;;;;;;;;;5092430;28;20048;-86
2023/07/05 11:16:24;;;;;;;3.20;2.45;;;;;;;;;;5092855;28;20435;-86
2023/07/05 11:19:03;;;;;;;4.40;2.40;;;;;;;;;;5093566;28;20070;-83
2023/07/05 11:21:40;;;;;;;2.25;2.05;;;;;;;;;;5093110;28;20085;-84
2023/07/05 11:24:08;;;;;;;2.45;2.25;;;;;;;;;;5091836;28;20058;-83
2023/07/05 11:26:41;;;;;;;2.30;2.10;;;;;;;;;;5092151;28;20496;-84
2023/07/05 11:29:27;;;;;;;2.20;2.10;;;;;;;;;;5091886;28;20051;-83
2023/07/05 11:31:55;;;;;;;2.17;2.08;;;;;;;;;;5091688;28;20392;-86
2023/07/05 11:34:23;;;;;;;2.35;2.17;;;;;;;;;;5091818;28;20465;-85
2023/07/05 11:36:53;;;;;;;2.60;2.40;;;;;;;;;;5092891;28;20044;-83
2023/07/05 11:39:35;;;;;;;5.78;2.53;;;;;;;;;;5093051;28;20048;-86
2023/07/05 11:42:15;;;;;;;7.70;2.50;;;;;;;;;;5092994;28;20499;-83
2023/07/05 11:44:46;;;;;;;7.72;3.05;;;;;;;;;;5092943;28;20155;-83
2023/07/05 11:47:22;;;;;;;2.70;2.50;;;;;;;;;;5093174;28;20060;-85
2023/07/05 11:49:52;;;;;;;2.72;2.28;;;;;;;;;;5091706;28;20051;-83
2023/07/05 11:52:23;;;;;;;7.18;3.00;;;;;;;;;;5091608;28;20040;-86
2023/07/05 11:54:55;;;;;;;5.78;2.58;;;;;;;;;;5091767;28;20051;-84
2023/07/05 11:57:23;;;;;;;6.63;2.35;;;;;;;;;;5091473;28;20044;-83
2023/07/05 11:59:50;;;;;;;5.97;2.33;;;;;;;;;;5091530;28;20495;-83
2023/07/05 12:02:26;;;;;;;3.40;1.90;;;;;;;;;;5092115;28;20061;-88
2023/07/05 12:04:55;;;;;;;16.27;2.97;;;;;;;;;;5091773;28;20048;-86
2023/07/05 12:07:24;;;;;;;8.63;2.50;;;;;;;;;;5091297;28;20285;-87
2023/07/05 12:09:54;;;;;;;10.57;2.50;;;;;;;;;;5091284;28;20055;-82
2023/07/05 12:12:22;;;;;;;3.78;2.35;;;;;;;;;;5092631;28;20101;-87
2023/07/05 12:14:49;;;;;;;7.28;2.65;;;;;;;;;;5091600;28;20091;-84
2023/07/05 12:17:18;;;;;;;4.35;2.30;;;;;;;;;;5091384;28;20093;-85
2023/07/05 12:19:48;;;;;;;2.90;2.03;;;;;;;;;;5092231;28;20043;-82
2023/07/05 12:22:18;;;;;;;4.32;2.55;;;;;;;;;;5096381;28;20484;-83
2023/07/05 12:24:49;;;;;;;2.53;2.35;;;;;;;;;;5095306;28;20044;-83
2023/07/05 12:27:20;;;;;;;2.22;2.00;;;;;;;;;;5096613;28;20048;-86
2023/07/05 12:29:52;;;;;;;9.73;3.25;;;;;;;;;;5095427;28;20052;-87
2023/07/05 12:32:21;;;;;;;2.67;2.30;;;;;;;;;;5095487;28;20101;-86
2023/07/05 12:35:03;;;;;;;5.53;2.85;;;;;;;;;;5096305;28;20044;-85
2023/07/05 12:37:31;;;;;;;8.50;2.83;;;;;;;;;;5095334;28;20105;-83
2023/07/05 12:40:30;;;;;;;4.10;2.33;;;;;;;;;;5096276;28;20058;-85
2023/07/05 12:43:05;;;;;;;2.70;2.50;;;;;;;;;;5072855;28;20063;-84
2023/07/05 12:45:35;;;;;;;4.50;2.35;;;;;;;;;;5096003;28;20102;-87
2023/07/05 12:48:15;;;;;;;3.53;2.55;;;;;;;;;;5096502;28;20040;-85
2023/07/05 12:50:43;;;;;;;3.75;2.60;;;;;;;;;;5096212;28;20079;-86
2023/07/05 12:53:16;;;;;;;3.63;2.42;;;;;;;;;;5095154;28;20074;-88
2023/07/05 12:55:50;;;;;;;3.20;2.67;;;;;;;;;;5094798;28;20044;-86
2023/07/05 12:58:21;;;;;;;3.38;2.42;;;;;;;;;;5096026;28;20056;-85
2023/07/05 13:00:50;;;;;;;2.33;2.10;;;;;;;;;;5096285;28;20055;-83
2023/07/05 13:03:18;;;;;;;2.55;2.35;;;;;;;;;;5094986;28;20048;-87
2023/07/05 13:05:46;;;;;;;2.80;2.60;;;;;;;;;;5095564;28;20044;-87
2023/07/05 13:08:16;;;;;;;3.38;2.28;;;;;;;;;;5094811;28;20048;-90
2023/07/05 13:10:44;;;;;;;3.03;2.20;;;;;;;;;;5095400;28;20047;-87
2023/07/05 13:13:26;;;;;;;2.25;2.15;;;;;;;;;;5094816;28;20480;-84
2023/07/05 13:15:54;;;;;;;2.65;2.22;;;;;;;;;;5095487;28;20452;-87
2023/07/05 13:18:21;;;;;;;3.13;2.15;;;;;;;;;;5094794;28;20044;-86
2023/07/05 13:20:48;;;;;;;7.32;2.30;;;;;;;;;;5095387;28;20047;-84
2023/07/05 13:23:27;;;;;;;2.20;2.00;;;;;;;;;;5095645;28;20393;-87
2023/07/05 13:25:56;;;;;;;6.95;2.33;;;;;;;;;;5095450;28;20400;-84
2023/07/05 13:28:30;;;;;;;4.43;2.60;;;;;;;;;;5093750;28;20051;-83
2023/07/05 13:30:57;;;;;;;;;;;;;;;;;;5095199;28;20052;-84
2023/07/05 13:33:25;;;;;;;4.07;2.28;;;;;;;;;;5092983;28;19971;-84
2023/07/05 13:35:53;;;;;;;3.47;2.28;;;;;;;;;;5093746;28;20040;-83
2023/07/05 13:38:22;;;;;;;5.28;2.65;;;;;;;;;;5093769;28;20048;-84
2023/07/05 13:40:51;;;;;;;2.28;2.08;;;;;;;;;;5094601;28;20081;-84
2023/07/05 13:43:19;;;;;;;2.25;2.05;;;;;;;;;;5093361;28;20543;-88
2023/07/05 13:45:46;;;;;;;3.83;2.08;;;;;;;;;;5093594;28;20048;-88
2023/07/05 13:48:13;;;;;;;3.03;2.17;;;;;;;;;;5095034;28;20048;-89
2023/07/05 13:50:41;;;;;;;3.88;2.30;;;;;;;;;;5094200;28;20055;-83
2023/07/05 13:53:17;;;;;;;2.55;2.05;;;;;;;;;;5093629;28;20056;-88
2023/07/05 13:55:44;;;;;;;1.85;1.75;;;;;;;;;;5093506;28;20483;-84
2023/07/05 13:58:18;;;;;;;4.68;2.00;;;;;;;;;;5094694;28;20044;-83
2023/07/05 14:00:46;;;;;;;3.05;2.20;;;;;;;;;;5094513;28;20131;-85
2023/07/05 14:03:13;;;;;;;8.05;2.58;;;;;;;;;;5093036;28;20212;-86
2023/07/05 14:05:41;;;;;;;6.43;2.33;;;;;;;;;;5093692;28;20044;-84
2023/07/05 14:08:14;;;;;;;3.95;2.45;;;;;;;;;;5094518;28;20101;-88
2023/07/05 14:10:47;;;;;;;4.88;1.95;;;;;;;;;;5093230;28;20052;-83
2023/07/05 14:13:16;;;;;;;3.67;2.10;;;;;;;;;;5093325;28;20086;-84
2023/07/05 14:15:44;;;;;;;2.30;2.10;;;;;;;;;;5093410;28;20562;-83
2023/07/05 14:18:16;;;;;;;4.55;2.25;;;;;;;;;;5094317;28;20099;-86
2023/07/05 14:20:44;;;;;;;2.50;2.30;;;;;;;;;;5093126;28;20055;-83
2023/07/05 14:23:12;;;;;;;8.32;3.22;;;;;;;;;;5092884;28;20385;-83
2023/07/05 14:25:48;;;;;;;4.25;2.13;;;;;;;;;;5092808;28;20052;-87
2023/07/05 14:28:16;;;;;;;2.20;2.00;;;;;;;;;;5092968;28;20044;-83
2023/07/05 14:30:47;;;;;;;2.97;1.90;;;;;;;;;;5092996;28;20074;-83
2023/07/05 14:33:16;;;;;;;2.42;2.20;;;;;;;;;;5092362;28;20091;-86
2023/07/05 14:35:44;;;;;;;7.32;2.53;;;;;;;;;;5093610;28;20048;-85
2023/07/05 14:38:11;;;;;;;2.35;2.15;;;;;;;;;;5093598;28;20052;-84
2023/07/05 14:40:41;;;;;;;2.33;2.13;;;;;;;;;;5093698;28;20069;-83
2023/07/05 14:43:10;;;;;;;4.80;2.08;;;;;;;;;;5091814;28;20482;-83
2023/07/05 14:45:38;;;;;;;4.43;2.45;;;;;;;;;;5093583;28;20048;-83
2023/07/05 14:48:05;;;;;;;4.13;2.33;;;;;;;;;;5092454;28;20052;-82
2023/07/05 14:50:36;;;;;;;2.03;1.92;;;;;;;;;;5091846;28;20048;-84